createdAt,value
2018-12-16T00:01:16.143Z,69.26
2018-12-16T00:03:44.916Z,69.34
2018-12-16T00:06:12.809Z,69.80
2018-12-16T00:08:41.187Z,69.78
2018-12-16T00:11:08.974Z,69.58
2018-12-16T00:13:36.917Z,70.02
2018-12-16T00:16:05.256Z,69.98
2018-12-16T00:18:34.053Z,70.24
2018-12-16T00:21:01.782Z,70.02
2018-12-16T00:23:30.392Z,70.21
2018-12-16T00:25:58.167Z,69.37
2018-12-16T00:28:26.105Z,69.93
2018-12-16T00:30:54.251Z,70.01
2018-12-16T00:33:22.404Z,68.88
2018-12-16T00:35:50.172Z,69.38
2018-12-16T00:38:18.745Z,69.76
2018-12-16T00:40:46.997Z,69.31
2018-12-16T00:43:15.133Z,68.94
2018-12-16T00:45:43.042Z,69.07
2018-12-16T00:48:11.274Z,68.64
2018-12-16T00:50:39.006Z,68.68
2018-12-16T00:53:06.924Z,68.51
2018-12-16T00:55:34.893Z,68.47
2018-12-16T00:58:02.926Z,68.36
2018-12-16T01:00:30.810Z,67.66
2018-12-16T01:02:58.826Z,68.35
2018-12-16T01:05:26.453Z,67.72
2018-12-16T01:07:54.505Z,67.87
2018-12-16T01:10:22.535Z,67.37
2018-12-16T01:12:50.936Z,67.88
2018-12-16T01:15:19.663Z,67.29
2018-12-16T01:17:48.293Z,67.62
2018-12-16T01:20:15.999Z,67.85
2018-12-16T01:22:44.283Z,67.51
2018-12-16T01:25:12.188Z,67.48
2018-12-16T01:27:40.157Z,67.28
2018-12-16T01:30:09.046Z,67.04
2018-12-16T01:32:37.308Z,66.94
2018-12-16T01:35:05.747Z,67.49
2018-12-16T01:37:35.191Z,66.98
2018-12-16T01:40:03.164Z,67.15
2018-12-16T01:42:31.546Z,67.24
2018-12-16T01:44:59.659Z,66.48
2018-12-16T01:47:27.315Z,66.64
2018-12-16T01:49:55.091Z,66.57
2018-12-16T01:52:22.808Z,67.25
2018-12-16T01:54:50.505Z,66.62
2018-12-16T01:57:18.759Z,66.78
2018-12-16T01:59:48.062Z,66.84
2018-12-16T02:02:15.823Z,66.41
2018-12-16T02:04:43.772Z,66.39
2018-12-16T02:07:11.867Z,66.63
2018-12-16T02:09:40.728Z,66.33
2018-12-16T02:12:10.021Z,66.68
2018-12-16T02:14:38.619Z,66.84
2018-12-16T02:17:07.226Z,66.08
2018-12-16T02:19:34.910Z,66.30
2018-12-16T02:22:02.825Z,66.35
2018-12-16T02:24:30.922Z,65.81
2018-12-16T02:26:58.713Z,66.47
2018-12-16T02:29:26.422Z,65.65
2018-12-16T02:31:54.470Z,65.65
2018-12-16T02:34:22.407Z,65.70
2018-12-16T02:36:50.346Z,65.64
2018-12-16T02:39:18.242Z,66.31
2018-12-16T02:41:45.871Z,65.90
2018-12-16T02:44:14.359Z,66.19
2018-12-16T02:46:43.766Z,66.61
2018-12-16T02:49:11.871Z,66.29
2018-12-16T02:51:40.057Z,65.66
2018-12-16T03:02:21.919Z,65.52
2018-12-16T03:04:49.763Z,65.10
2018-12-16T03:07:19.163Z,64.40
2018-12-16T03:09:46.930Z,64.69
2018-12-16T03:12:15.070Z,64.81
2018-12-16T03:14:42.833Z,64.72
2018-12-16T03:17:10.519Z,65.00
2018-12-16T03:19:38.178Z,64.75
2018-12-16T03:22:06.020Z,64.05
2018-12-16T03:24:33.836Z,64.66
2018-12-16T03:27:02.065Z,64.72
2018-12-16T03:29:29.826Z,64.86
2018-12-16T03:31:58.760Z,64.09
2018-12-16T03:34:26.946Z,64.41
2018-12-16T03:36:55.057Z,64.20
2018-12-16T03:39:23.563Z,65.06
2018-12-16T03:41:51.296Z,64.67
2018-12-16T03:44:19.254Z,65.46
2018-12-16T03:46:46.940Z,64.74
2018-12-16T03:49:14.876Z,64.58
2018-12-16T03:51:43.834Z,64.03
2018-12-16T03:54:12.157Z,64.55
2018-12-16T03:56:40.176Z,64.34
2018-12-16T03:59:13.607Z,63.81
2018-12-16T04:01:41.433Z,63.68
2018-12-16T04:04:09.213Z,64.51
2018-12-16T04:06:37.173Z,64.41
2018-12-16T04:09:06.043Z,64.22
2018-12-16T04:11:33.907Z,64.55
2018-12-16T04:14:02.157Z,64.77
2018-12-16T04:16:30.992Z,64.10
2018-12-16T04:18:59.485Z,64.38
2018-12-16T04:21:28.815Z,63.97
2018-12-16T04:23:56.821Z,65.20
2018-12-16T04:26:25.018Z,64.17
2018-12-16T04:28:53.405Z,64.99
2018-12-16T04:31:20.965Z,64.25
2018-12-16T04:33:48.603Z,64.27
2018-12-16T04:36:16.178Z,64.15
2018-12-16T04:38:43.742Z,64.00
2018-12-16T04:41:11.484Z,64.08
2018-12-16T04:43:39.169Z,64.54
2018-12-16T04:46:06.800Z,64.42
2018-12-16T04:48:34.699Z,64.95
2018-12-16T04:51:02.296Z,67.56
2018-12-16T04:53:35.940Z,69.37
2018-12-16T04:55:59.661Z,69.73
2018-12-16T04:58:27.286Z,72.12
2018-12-16T05:00:54.947Z,73.73
2018-12-16T05:03:22.497Z,73.87
2018-12-16T05:05:50.228Z,74.81
2018-12-16T05:08:17.861Z,76.18
2018-12-16T05:10:45.461Z,76.45
2018-12-16T05:13:13.094Z,77.67
2018-12-16T05:15:40.616Z,78.90
2018-12-16T05:18:08.122Z,79.85
2018-12-16T05:20:35.846Z,80.65
2018-12-16T05:23:03.417Z,80.91
2018-12-16T05:25:30.993Z,82.20
2018-12-16T05:27:58.692Z,82.89
2018-12-16T05:30:26.314Z,82.45
2018-12-16T05:32:54.196Z,83.43
2018-12-16T05:35:21.825Z,84.14
2018-12-16T05:37:49.503Z,84.67
2018-12-16T05:40:17.053Z,84.58
2018-12-16T05:42:44.647Z,85.56
2018-12-16T05:45:12.488Z,86.43
2018-12-16T05:47:40.021Z,87.69
2018-12-16T05:50:07.878Z,86.52
2018-12-16T05:52:35.540Z,87.68
2018-12-16T05:55:03.467Z,87.90
2018-12-16T05:57:31.081Z,86.72
2018-12-16T05:59:58.641Z,86.44
2018-12-16T06:02:26.218Z,85.89
2018-12-16T06:04:53.900Z,87.26
2018-12-16T06:07:21.408Z,85.81
2018-12-16T06:09:49.309Z,88.38
2018-12-16T06:12:16.850Z,86.48
2018-12-16T06:14:44.437Z,86.00
2018-12-16T06:17:11.953Z,86.99
2018-12-16T06:19:39.531Z,88.58
2018-12-16T06:22:07.051Z,86.54
2018-12-16T06:24:34.554Z,87.36
2018-12-16T06:27:02.120Z,85.76
2018-12-16T06:29:29.634Z,85.31
2018-12-16T06:31:57.388Z,85.75
2018-12-16T06:34:25.005Z,86.54
2018-12-16T06:36:52.504Z,86.82
2018-12-16T06:39:20.171Z,85.57
2018-12-16T06:41:47.798Z,86.07
2018-12-16T06:44:15.342Z,86.37
2018-12-16T06:46:42.916Z,84.23
2018-12-16T06:49:10.425Z,85.15
2018-12-16T06:51:38.079Z,86.09
2018-12-16T06:54:05.755Z,86.05
2018-12-16T06:56:33.571Z,84.78
2018-12-16T06:59:01.095Z,86.90
2018-12-16T07:01:28.679Z,87.16
2018-12-16T07:03:56.217Z,88.23
2018-12-16T07:06:23.890Z,88.10
2018-12-16T07:08:51.392Z,88.51
2018-12-16T07:11:18.923Z,87.71
2018-12-16T07:13:46.552Z,88.21
2018-12-16T07:16:14.238Z,88.46
2018-12-16T07:18:41.872Z,87.77
2018-12-16T07:21:09.426Z,88.41
2018-12-16T07:23:37.310Z,89.01
2018-12-16T07:26:04.993Z,89.57
2018-12-16T07:28:32.546Z,90.34
2018-12-16T07:31:00.226Z,89.91
2018-12-16T07:33:28.248Z,88.97
2018-12-16T07:35:55.878Z,90.29
2018-12-16T07:38:23.607Z,88.02
2018-12-16T07:40:51.543Z,87.48
2018-12-16T07:43:19.424Z,88.32
2018-12-16T07:45:47.303Z,87.64
2018-12-16T07:48:15.261Z,87.72
2018-12-16T07:50:43.016Z,86.41
2018-12-16T07:53:10.719Z,85.78
2018-12-16T07:55:38.401Z,86.39
2018-12-16T07:58:06.122Z,86.28
2018-12-16T08:00:33.846Z,85.66
2018-12-16T08:03:03.866Z,86.06
2018-12-16T08:05:31.528Z,86.24
2018-12-16T08:07:59.297Z,86.07
2018-12-16T08:10:26.982Z,84.80
2018-12-16T08:12:54.528Z,85.08
2018-12-16T08:15:22.117Z,84.64
2018-12-16T08:17:49.661Z,85.09
2018-12-16T08:20:17.223Z,84.29
2018-12-16T08:22:44.889Z,83.79
2018-12-16T08:25:13.231Z,83.11
2018-12-16T08:27:40.946Z,82.20
2018-12-16T08:30:08.801Z,83.82
2018-12-16T08:32:36.468Z,82.90
2018-12-16T08:35:04.585Z,83.87
2018-12-16T08:37:32.219Z,84.77
2018-12-16T08:40:00.006Z,85.00
2018-12-16T08:42:27.602Z,85.10
2018-12-16T08:44:55.177Z,83.91
2018-12-16T08:47:22.851Z,83.52
2018-12-16T08:49:50.487Z,82.09
2018-12-16T08:52:18.116Z,82.12
2018-12-16T08:54:45.690Z,81.84
2018-12-16T08:57:13.206Z,80.75
2018-12-16T08:59:40.674Z,79.83
2018-12-16T09:02:08.290Z,77.21
2018-12-16T09:04:35.843Z,78.08
2018-12-16T09:07:03.468Z,78.38
2018-12-16T09:09:31.475Z,78.25
2018-12-16T09:11:59.150Z,77.75
2018-12-16T09:14:26.976Z,76.90
2018-12-16T09:16:54.493Z,77.34
2018-12-16T09:19:22.920Z,76.32
2018-12-16T09:21:50.544Z,76.26
2018-12-16T09:24:18.169Z,76.06
2018-12-16T09:26:45.752Z,75.62
2018-12-16T09:29:14.222Z,75.24
2018-12-16T09:31:41.768Z,75.65
2018-12-16T09:34:09.317Z,73.72
2018-12-16T09:36:37.119Z,71.89
2018-12-16T09:39:06.338Z,72.23
2018-12-16T09:41:34.064Z,73.18
2018-12-16T09:44:01.625Z,72.47
2018-12-16T09:46:30.052Z,72.06
2018-12-16T09:48:57.843Z,71.30
2018-12-16T09:51:25.421Z,71.89
2018-12-16T09:53:53.193Z,72.68
2018-12-16T09:56:21.114Z,72.64
2018-12-16T09:58:49.090Z,72.71
2018-12-16T10:01:16.757Z,73.48
2018-12-16T10:03:44.502Z,72.00
2018-12-16T10:08:56.293Z,71.37
2018-12-16T10:11:23.828Z,71.04
2018-12-16T10:13:51.508Z,71.48
2018-12-16T10:16:19.048Z,70.67
2018-12-16T10:18:46.817Z,71.31
2018-12-16T10:21:14.489Z,71.92
2018-12-16T10:23:42.169Z,70.29
2018-12-16T10:26:09.990Z,70.97
2018-12-16T10:28:38.122Z,71.62
2018-12-16T10:31:06.719Z,70.65
2018-12-16T10:33:34.653Z,70.95
2018-12-16T10:36:02.639Z,69.62
2018-12-16T10:38:30.750Z,69.33
2018-12-16T10:40:58.706Z,67.62
2018-12-16T10:43:26.893Z,65.57
2018-12-16T10:45:54.496Z,64.95
2018-12-16T10:48:22.209Z,65.27
2018-12-16T10:50:49.966Z,65.15
2018-12-16T10:53:17.778Z,66.42
2018-12-16T10:55:45.455Z,65.67
2018-12-16T10:58:13.474Z,66.93
2018-12-16T11:00:46.611Z,66.00
2018-12-16T11:03:14.354Z,64.74
2018-12-16T11:05:42.155Z,64.58
2018-12-16T11:08:09.736Z,63.00
2018-12-16T11:10:37.451Z,62.89
2018-12-16T11:13:05.500Z,62.52
2018-12-16T11:15:33.283Z,62.15
2018-12-16T11:18:01.180Z,60.88
2018-12-16T11:20:29.658Z,61.14
2018-12-16T11:22:57.517Z,60.79
2018-12-16T11:25:25.632Z,61.06
2018-12-16T11:27:53.354Z,59.37
2018-12-16T11:30:21.107Z,60.26
2018-12-16T11:32:49.037Z,60.18
2018-12-16T11:35:16.731Z,60.85
2018-12-16T11:37:44.437Z,60.18
2018-12-16T11:40:12.309Z,60.74
2018-12-16T11:42:40.550Z,61.39
2018-12-16T11:45:08.308Z,60.18
2018-12-16T11:47:35.873Z,60.38
2018-12-16T11:50:04.162Z,60.19
2018-12-16T11:52:31.940Z,60.05
2018-12-16T11:55:00.277Z,61.16
2018-12-16T11:57:27.981Z,59.90
2018-12-16T11:59:55.581Z,62.19
2018-12-16T12:02:23.429Z,64.02
2018-12-16T12:04:51.038Z,64.56
2018-12-16T12:07:19.054Z,65.11
2018-12-16T12:09:46.678Z,65.07
2018-12-16T12:12:14.809Z,65.43
2018-12-16T12:14:42.858Z,65.97
2018-12-16T12:17:10.392Z,67.06
2018-12-16T12:19:39.782Z,67.78
2018-12-16T12:22:07.522Z,69.02
2018-12-16T12:24:35.083Z,68.89
2018-12-16T12:27:02.717Z,70.30
2018-12-16T12:29:30.510Z,70.71
2018-12-16T12:31:58.160Z,71.49
2018-12-16T12:34:25.701Z,72.32
2018-12-16T12:36:53.296Z,72.67
2018-12-16T12:39:20.870Z,73.10
2018-12-16T12:41:48.411Z,72.81
2018-12-16T12:44:16.009Z,73.48
2018-12-16T12:46:43.703Z,72.40
2018-12-16T12:49:11.259Z,72.69
2018-12-16T12:51:38.993Z,73.36
2018-12-16T12:54:06.745Z,73.87
2018-12-16T12:56:34.476Z,73.69
2018-12-16T12:59:02.017Z,73.28
2018-12-16T13:01:29.929Z,72.82
2018-12-16T13:03:57.588Z,73.71
2018-12-16T13:06:25.091Z,74.50
2018-12-16T13:08:52.705Z,74.20
2018-12-16T13:11:20.254Z,73.47
2018-12-16T13:13:47.807Z,74.51
2018-12-16T13:16:15.469Z,73.63
2018-12-16T13:18:44.371Z,73.95
2018-12-16T13:21:12.070Z,74.40
2018-12-16T13:23:39.801Z,74.08
2018-12-16T13:26:07.582Z,73.99
2018-12-16T13:28:35.253Z,74.62
2018-12-16T13:31:02.887Z,74.84
2018-12-16T13:33:30.604Z,75.73
2018-12-16T13:35:58.145Z,75.78
2018-12-16T13:38:25.764Z,75.72
2018-12-16T13:40:53.377Z,75.36
2018-12-16T13:43:20.997Z,75.25
2018-12-16T13:45:48.688Z,74.56
2018-12-16T13:48:16.378Z,75.90
2018-12-16T13:50:44.113Z,75.68
2018-12-16T13:54:41.056Z,76.88
2018-12-16T13:57:09.358Z,76.54
2018-12-16T13:59:37.243Z,76.35
2018-12-16T14:02:05.123Z,76.61
2018-12-16T14:04:34.307Z,77.03
2018-12-16T14:07:02.137Z,78.52
2018-12-16T14:09:31.655Z,77.24
2018-12-16T14:12:00.847Z,76.94
2018-12-16T14:14:29.538Z,78.87
2018-12-16T14:16:58.395Z,77.64
2018-12-16T14:19:27.846Z,77.75
2018-12-16T14:21:55.838Z,76.75
2018-12-16T14:24:25.179Z,77.95
2018-12-16T14:26:53.413Z,78.65
2018-12-16T14:29:21.859Z,78.20
2018-12-16T14:31:49.874Z,78.31
2018-12-16T14:34:18.244Z,78.59
2018-12-16T14:36:47.505Z,78.67
2018-12-16T14:39:15.908Z,78.72
2018-12-16T14:41:43.941Z,79.71
2018-12-16T14:44:12.296Z,79.29
2018-12-16T14:46:41.460Z,79.20
2018-12-16T14:49:09.466Z,79.45
2018-12-16T14:51:37.164Z,79.28
2018-12-16T14:54:05.727Z,79.48
2018-12-16T14:56:33.739Z,80.47
2018-12-16T14:59:01.427Z,79.81
2018-12-16T15:01:30.732Z,80.13
2018-12-16T15:03:58.653Z,80.38
2018-12-16T15:06:26.724Z,79.87
2018-12-16T15:08:55.790Z,79.92
2018-12-16T15:11:23.725Z,78.95
2018-12-16T15:13:52.107Z,80.20
2018-12-16T15:16:22.055Z,80.51
2018-12-16T15:18:50.258Z,79.82
2018-12-16T15:21:18.609Z,80.01
2018-12-16T15:23:46.872Z,81.02
2018-12-16T15:26:17.183Z,80.52
2018-12-16T15:28:47.335Z,80.82
2018-12-16T15:31:15.254Z,81.34
2018-12-16T15:33:43.284Z,82.02
2018-12-16T15:36:13.817Z,81.95
2018-12-16T15:38:42.549Z,82.89
2018-12-16T15:41:12.090Z,83.38
2018-12-16T15:43:42.272Z,82.41
2018-12-16T15:46:10.622Z,81.91
2018-12-16T15:48:38.339Z,82.25
2018-12-16T15:51:06.155Z,82.83
2018-12-16T15:53:35.126Z,82.43
2018-12-16T15:56:09.536Z,82.65
2018-12-16T15:58:36.801Z,82.13
2018-12-16T16:01:04.742Z,82.37
2018-12-16T16:03:34.451Z,83.31
2018-12-16T16:06:03.355Z,83.62
2018-12-16T16:08:32.320Z,83.69
2018-12-16T16:11:03.858Z,83.36
2018-12-16T16:13:31.785Z,83.92
2018-12-16T16:15:59.706Z,84.75
2018-12-16T16:18:27.620Z,84.78
2018-12-16T16:20:57.994Z,84.66
2018-12-16T16:23:25.580Z,85.00
2018-12-16T16:25:53.110Z,83.72
2018-12-16T16:28:20.811Z,83.83
2018-12-16T16:30:48.381Z,83.88
2018-12-16T16:33:16.030Z,83.22
2018-12-16T16:35:43.857Z,82.75
2018-12-16T16:38:11.473Z,84.10
2018-12-16T16:40:39.333Z,83.80
2018-12-16T16:43:06.987Z,83.73
2018-12-16T16:45:34.521Z,83.02
2018-12-16T16:48:02.101Z,82.78
2018-12-16T16:50:29.748Z,83.95
2018-12-16T16:52:57.446Z,84.52
2018-12-16T16:55:25.171Z,83.82
2018-12-16T16:57:52.684Z,83.52
2018-12-16T17:00:20.219Z,85.71
2018-12-16T17:02:47.802Z,85.59
2018-12-16T17:05:15.454Z,84.85
2018-12-16T17:07:43.166Z,85.12
2018-12-16T17:10:12.124Z,85.78
2018-12-16T17:12:39.785Z,86.70
2018-12-16T17:15:07.862Z,87.63
2018-12-16T17:17:35.395Z,87.45
2018-12-16T17:20:03.643Z,88.05
2018-12-16T17:22:31.157Z,87.97
2018-12-16T17:24:58.741Z,88.05
2018-12-16T17:30:10.957Z,87.76
2018-12-16T17:32:38.441Z,88.55
2018-12-16T17:35:12.614Z,88.76
2018-12-16T17:37:40.156Z,88.87
2018-12-16T17:40:07.954Z,88.42
2018-12-16T17:42:35.502Z,87.25
2018-12-16T17:45:03.464Z,87.42
2018-12-16T17:47:31.390Z,87.49
2018-12-16T17:49:59.017Z,86.99
2018-12-16T17:52:26.874Z,87.55
2018-12-16T17:54:54.487Z,88.49
2018-12-16T17:57:22.020Z,87.32
2018-12-16T17:59:49.837Z,88.34
2018-12-16T18:02:17.421Z,89.79
2018-12-16T18:04:45.030Z,90.18
2018-12-16T18:07:12.566Z,90.22
2018-12-16T18:09:40.125Z,90.70
2018-12-16T18:12:07.943Z,91.02
2018-12-16T18:14:35.553Z,91.66
2018-12-16T18:17:03.974Z,92.39
2018-12-16T18:19:31.708Z,91.96
2018-12-16T18:21:59.250Z,92.12
2018-12-16T18:24:26.927Z,93.32
2018-12-16T18:26:54.457Z,94.06
2018-12-16T18:29:22.002Z,92.91
2018-12-16T18:31:49.535Z,93.03
2018-12-16T18:34:17.329Z,92.88
2018-12-16T18:36:44.958Z,94.17
2018-12-16T18:39:12.654Z,94.33
2018-12-16T18:41:40.764Z,94.45
2018-12-16T18:44:08.591Z,93.48
2018-12-16T18:46:36.227Z,92.31
2018-12-16T18:49:03.993Z,92.03
2018-12-16T18:51:31.582Z,91.82
2018-12-16T18:53:59.388Z,92.20
2018-12-16T18:56:26.952Z,91.53
2018-12-16T18:58:54.999Z,91.01
2018-12-16T19:01:22.640Z,89.71
2018-12-16T19:03:50.293Z,91.28
2018-12-16T19:06:18.194Z,92.53
2018-12-16T19:08:45.849Z,91.55
2018-12-16T19:11:13.399Z,90.64
2018-12-16T19:13:41.079Z,91.34
2018-12-16T19:16:08.669Z,91.53
2018-12-16T19:18:36.357Z,90.00
2018-12-16T19:21:04.033Z,90.75
2018-12-16T19:23:31.625Z,90.57
2018-12-16T19:25:59.158Z,90.80
2018-12-16T19:28:26.880Z,89.22
2018-12-16T19:30:54.593Z,89.55
2018-12-16T19:33:22.296Z,89.78
2018-12-16T19:35:49.827Z,88.25
2018-12-16T19:38:17.345Z,90.35
2018-12-16T19:40:45.024Z,88.78
2018-12-16T19:43:12.714Z,89.79
2018-12-16T19:45:40.267Z,90.47
2018-12-16T19:48:07.822Z,90.26
2018-12-16T19:50:35.555Z,91.01
2018-12-16T19:53:03.215Z,89.95
2018-12-16T19:55:30.916Z,88.48
2018-12-16T19:57:58.579Z,89.19
2018-12-16T20:00:26.189Z,88.82
2018-12-16T20:02:54.097Z,88.47
2018-12-16T20:05:23.573Z,88.53
2018-12-16T20:07:51.803Z,88.97
2018-12-16T20:10:19.444Z,88.70
2018-12-16T20:12:47.134Z,89.36
2018-12-16T20:15:15.862Z,89.78
2018-12-16T20:17:43.459Z,90.60
2018-12-16T20:20:11.955Z,90.53
2018-12-16T20:22:39.606Z,90.09
2018-12-16T20:25:07.313Z,89.72
2018-12-16T20:27:35.217Z,90.83
2018-12-16T20:30:03.026Z,91.61
2018-12-16T20:32:30.615Z,91.74
2018-12-16T20:34:58.312Z,91.01
2018-12-16T20:37:25.890Z,91.52
2018-12-16T20:39:53.434Z,91.23
2018-12-16T20:42:21.033Z,89.84
2018-12-16T20:44:48.681Z,89.29
2018-12-16T20:47:16.509Z,89.71
2018-12-16T20:49:44.174Z,89.74
2018-12-16T20:52:11.786Z,89.90
2018-12-16T20:54:39.411Z,90.41
2018-12-16T20:57:06.996Z,90.78
2018-12-16T20:59:34.628Z,90.46
2018-12-16T21:02:02.175Z,90.94
2018-12-16T21:04:29.961Z,90.98
2018-12-16T21:06:57.495Z,91.65
2018-12-16T21:09:25.062Z,91.61
2018-12-16T21:11:58.418Z,93.09
2018-12-16T21:14:31.281Z,93.21
2018-12-16T21:18:02.658Z,93.41
2018-12-16T21:20:30.182Z,93.25
2018-12-16T21:22:57.753Z,93.42
2018-12-16T21:25:25.405Z,93.60
2018-12-16T21:27:53.083Z,93.37
2018-12-16T21:30:20.599Z,93.79
2018-12-16T21:32:48.165Z,93.36
2018-12-16T21:35:16.042Z,94.23
2018-12-16T21:37:43.603Z,94.96
2018-12-16T21:40:11.390Z,95.15
2018-12-16T21:42:39.009Z,95.07
2018-12-16T21:45:06.653Z,95.46
2018-12-16T21:47:34.259Z,96.19
2018-12-16T21:50:01.863Z,95.57
2018-12-16T21:52:29.699Z,95.74
2018-12-16T21:54:57.289Z,97.18
2018-12-16T21:57:24.992Z,97.88
2018-12-16T21:59:52.918Z,97.74
2018-12-16T22:02:20.508Z,96.71
2018-12-16T22:04:48.143Z,96.87
2018-12-16T22:07:15.638Z,97.92
2018-12-16T22:09:43.182Z,99.03
2018-12-16T22:12:10.788Z,98.47
2018-12-16T22:14:38.471Z,98.88
2018-12-16T22:17:06.040Z,98.47
2018-12-16T22:19:33.658Z,98.64
2018-12-16T22:22:01.365Z,98.89
2018-12-16T22:24:28.927Z,99.16
2018-12-16T22:26:56.596Z,98.94
2018-12-16T22:29:24.189Z,99.27
2018-12-16T22:31:51.851Z,99.29
2018-12-16T22:34:19.453Z,99.99
2018-12-16T22:40:04.515Z,98.96
2018-12-16T22:42:32.352Z,98.56
2018-12-16T22:45:00.013Z,98.31
2018-12-16T22:47:27.584Z,97.61
2018-12-16T22:49:55.111Z,97.82
2018-12-16T22:52:22.713Z,97.08
2018-12-16T22:54:50.439Z,97.45
2018-12-16T22:57:17.957Z,97.32
2018-12-16T22:59:45.796Z,97.12
2018-12-16T23:02:13.487Z,96.90
2018-12-16T23:04:41.113Z,96.40
2018-12-16T23:07:08.890Z,96.73
2018-12-16T23:09:36.472Z,96.63
2018-12-16T23:12:04.161Z,96.99
2018-12-16T23:14:31.751Z,96.02
2018-12-16T23:16:59.438Z,95.56
2018-12-16T23:19:27.009Z,95.77
2018-12-16T23:25:15.651Z,95.88
2018-12-16T23:27:56.168Z,96.12
2018-12-16T23:30:36.906Z,95.16
2018-12-16T23:33:04.705Z,96.20
2018-12-16T23:35:54.457Z,95.65
2018-12-16T23:38:23.617Z,98.48
2018-12-16T23:40:51.108Z,99.76
2018-12-16T23:43:36.847Z,99.06
2018-12-16T23:46:05.344Z,100.00
2018-12-16T23:48:32.834Z,99.98
2018-12-16T23:51:00.330Z,99.84
